createdAt,value
2023-03-05T00:07:33.312Z,101820.00
2023-03-05T00:18:22.631Z,101815.00
2023-03-05T00:29:16.195Z,101828.00
2023-03-05T00:39:39.852Z,101804.00
2023-03-05T00:50:03.696Z,101795.00
2023-03-05T01:00:25.351Z,101770.00
2023-03-05T01:10:48.761Z,101761.00
2023-03-05T01:21:12.678Z,101734.00
2023-03-05T01:31:36.222Z,101730.00
2023-03-05T01:41:58.409Z,101716.00
2023-03-05T01:52:24.180Z,101725.00
2023-03-05T02:02:48.817Z,101711.00
2023-03-05T02:13:14.804Z,101713.00
2023-03-05T02:23:40.170Z,101682.00
2023-03-05T02:34:01.605Z,101686.00
2023-03-05T02:44:25.631Z,101682.00
2023-03-05T02:54:47.297Z,101678.00
2023-03-05T03:05:11.092Z,101658.00
2023-03-05T03:15:33.075Z,101638.00
2023-03-05T03:25:56.196Z,101650.00
2023-03-05T03:36:17.918Z,101631.00
2023-03-05T03:46:41.868Z,101601.00
2023-03-05T03:57:03.664Z,101617.00
2023-03-05T04:07:26.570Z,101607.00
2023-03-05T04:17:48.472Z,101606.00
2023-03-05T04:28:12.146Z,101599.00
2023-03-05T04:38:33.991Z,101594.00
2023-03-05T04:48:58.640Z,101588.00
2023-03-05T04:59:20.100Z,101589.00
2023-03-05T05:09:42.986Z,101579.00
2023-03-05T05:20:08.237Z,101587.00
2023-03-05T05:30:31.436Z,101591.00
2023-03-05T05:40:53.312Z,101577.00
2023-03-05T05:51:20.926Z,101577.00
2023-03-05T06:01:42.781Z,101571.00
2023-03-05T06:12:07.506Z,101594.00
2023-03-05T06:22:29.288Z,101571.00
2023-03-05T06:32:52.614Z,101567.00
2023-03-05T06:55:31.646Z,101544.00
2023-03-05T07:05:53.074Z,101553.00
2023-03-05T07:16:19.028Z,101561.00
2023-03-05T07:26:40.801Z,101563.00
2023-03-05T07:37:04.587Z,101560.00
2023-03-05T07:47:28.092Z,101549.00
2023-03-05T07:57:54.337Z,101535.00
2023-03-05T08:08:19.423Z,101529.00
2023-03-05T08:18:46.524Z,101539.00
2023-03-05T08:29:08.943Z,101523.00
2023-03-05T08:39:34.096Z,101511.00
2023-03-05T08:49:57.599Z,101487.00
2023-03-05T09:00:21.837Z,101503.00
2023-03-05T09:10:43.760Z,101499.00
2023-03-05T09:21:08.692Z,101441.00
2023-03-05T09:31:32.057Z,101472.00
2023-03-05T09:42:25.038Z,101473.00
2023-03-05T09:52:48.649Z,101480.00
2023-03-05T10:03:18.242Z,101435.00
2023-03-05T10:13:44.077Z,101439.00
2023-03-05T10:24:17.347Z,101439.00
2023-03-05T10:35:02.355Z,101418.00
2023-03-05T10:45:30.492Z,101437.00
2023-03-05T10:55:57.379Z,101415.00
2023-03-05T11:06:37.042Z,101406.00
2023-03-05T11:16:58.768Z,101411.00
2023-03-05T11:27:34.271Z,101414.00
2023-03-05T11:38:02.133Z,101402.00
2023-03-05T11:48:29.601Z,101398.00
2023-03-05T11:58:55.836Z,101392.00
2023-03-05T12:09:25.779Z,101380.00
2023-03-05T12:20:01.501Z,101383.00
2023-03-05T12:30:59.298Z,101376.00
2023-03-05T12:41:38.274Z,101318.00
2023-03-05T12:52:06.350Z,101307.00
2023-03-05T13:02:32.789Z,101277.00
2023-03-05T13:12:58.450Z,101307.00
2023-03-05T13:23:23.259Z,101311.00
2023-03-05T13:33:54.293Z,101290.00
2023-03-05T13:44:21.857Z,101295.00
2023-03-05T13:54:44.868Z,101266.00
2023-03-05T14:05:15.342Z,101267.00
2023-03-05T14:15:39.263Z,101275.00
2023-03-05T14:26:19.238Z,101272.00
2023-03-05T14:36:48.828Z,101254.00
2023-03-05T14:47:10.495Z,101290.00
2023-03-05T14:57:33.793Z,101291.00
2023-03-05T15:07:55.248Z,101253.00
2023-03-05T15:18:19.985Z,101253.00
2023-03-05T15:28:41.880Z,101236.00
2023-03-05T15:39:05.002Z,101237.00
2023-03-05T15:49:26.590Z,101228.00
2023-03-05T15:59:49.573Z,101224.00
2023-03-05T16:10:14.434Z,101236.00
2023-03-05T16:20:38.238Z,101230.00
2023-03-05T16:31:00.830Z,101235.00
2023-03-05T16:41:24.744Z,101224.00
2023-03-05T16:51:46.598Z,101230.00
2023-03-05T17:02:09.619Z,101238.00
2023-03-05T17:12:31.639Z,101239.00
2023-03-05T17:22:55.109Z,101244.00
2023-03-05T17:33:16.702Z,101230.00
2023-03-05T17:43:39.917Z,101239.00
2023-03-05T17:54:01.497Z,101241.00
2023-03-05T18:04:24.734Z,101237.00
2023-03-05T18:14:48.049Z,101243.00
2023-03-05T18:25:12.081Z,101246.00
2023-03-05T18:35:34.144Z,101244.00
2023-03-05T18:45:57.468Z,101227.00
2023-03-05T18:56:19.119Z,101218.00
2023-03-05T19:06:42.456Z,101216.00
2023-03-05T19:17:04.044Z,101205.00
2023-03-05T19:27:27.640Z,101209.00
2023-03-05T19:37:49.708Z,101204.00
2023-03-05T19:48:13.169Z,101201.00
2023-03-05T19:58:34.956Z,101188.00
2023-03-05T20:08:58.859Z,101183.00
2023-03-05T20:19:21.905Z,101179.00
2023-03-05T20:29:44.892Z,101174.00
2023-03-05T20:40:08.329Z,101167.00
2023-03-05T20:50:33.417Z,101148.00
2023-03-05T21:00:55.016Z,101136.00
2023-03-05T21:11:18.538Z,101132.00
2023-03-05T21:21:44.699Z,101114.00
2023-03-05T21:32:08.497Z,101107.00
2023-03-05T21:42:32.943Z,101104.00
2023-03-05T21:52:56.235Z,101090.00
2023-03-05T22:03:20.038Z,101062.00
2023-03-05T22:13:43.845Z,101050.00
2023-03-05T22:24:07.870Z,101047.00
2023-03-05T22:34:31.034Z,101031.00
2023-03-05T22:44:57.131Z,101027.00
2023-03-05T22:55:20.456Z,100993.00
2023-03-05T23:05:46.218Z,100989.00
2023-03-05T23:16:12.550Z,100985.00
2023-03-05T23:26:39.003Z,100971.00
2023-03-05T23:37:02.840Z,100954.00
2023-03-05T23:47:29.469Z,100949.00
2023-03-05T23:57:53.448Z,100931.00
